This is the latest recevied weather packets stored in our database for station/object W4TTU-1. If no packets are shown the sender has not sent any weather packets the latest 10 day(s).
| Time | Temp. | Humidity | Pressure | Rain* | Wind** | Luminosity | Snow |
|---|---|---|---|---|---|---|---|
| 1777437767 | 8.33° C | 35% | 849.6 hPa | 0 mm | - | - | - |
| 1777436866 | 8.89° C | 36% | 849.7 hPa | 0 mm | - | - | - |
| 1777435966 | 9.44° C | 34% | 849.9 hPa | 0 mm | - | - | - |
| 1777435065 | 10° C | 35% | 849.8 hPa | 0 mm | - | - | - |
| 1777434164 | 10.56° C | 35% | 849.7 hPa | 0 mm | - | - | - |
| 1777433264 | 11.11° C | 34% | 849.5 hPa | 0 mm | - | - | - |
| 1777432363 | 11.67° C | 34% | 848.9 hPa | 0 mm | - | - | - |
| 1777430562 | 13.89° C | 33% | 848.1 hPa | 0 mm | - | - | - |
| 1777429663 | 15° C | 32% | 847.8 hPa | 0 mm | - | - | - |
| 1777428763 | 16.67° C | 32% | 847.6 hPa | 0 mm | - | - | - |
| 1777427861 | 17.78° C | 32% | 847.6 hPa | 0 mm | - | - | - |
| 1777426960 | 18.33° C | 33% | 847.6 hPa | 0 mm | - | - | - |
| 1777422458 | 20.56° C | 31% | 846.9 hPa | 0 mm | - | - | - |
| 1777421557 | 20.56° C | 32% | 846.7 hPa | 0 mm | - | - | - |
| 1777419756 | 21.11° C | 31% | 846.6 hPa | 0 mm | - | - | - |
| 1777418856 | 21.67° C | 32% | 846.4 hPa | 0 mm | - | - | - |
| 1777417955 | 22.22° C | 32% | 846.2 hPa | 0 mm | - | - | - |
| 1777417055 | 22.22° C | 32% | 846.2 hPa | 0 mm | - | - | - |
| 1777416154 | 22.78° C | 32% | 846.2 hPa | 0 mm | - | - | - |
| 1777415253 | 23.89° C | 32% | 846.2 hPa | 0 mm | - | - | - |
| 1777414353 | 24.44° C | 32% | 846.1 hPa | 0 mm | - | - | - |
| 1777413452 | 25.56° C | 34% | 846 hPa | 0 mm | - | - | - |
| 1777411652 | 23.33° C | 36% | 846 hPa | 0 mm | - | - | - |
| 1777410751 | 22.22° C | 35% | 846.3 hPa | 0 mm | - | - | - |
| 1777409854 | 21.67° C | 36% | 846.6 hPa | 0 mm | - | - | - |
* Rain since midnight (hover to see other rain measurements)
** Current wind speed in m/s (hover to see current wind gust speed)